LiveATC.Net - Listen to live air traffic control over the Internet!


ICAO: KMWA  IATA: MWA   Airport: Williamson County Regional Airport
City: Marion   State/Province: Illinois
Country: United States   Continent: North America
KMWA METAR Weather: KMWA 081352Z 07005KT 10SM OVC036 06/05 A3028
KMWA ADS-B Flight Tracking  (ADSBExchange)
KMWA Flight Activity (FlightAware)
KMWA Airport Info   (iFlightPlanner)
KMWA VFR Sectional Chart   (iFlightPlanner) 
KMWA IFR Low Altitude Chart   (iFlightPlanner) 
KMWA IFR High Altitude Chart   (iFlightPlanner) 

KMWA Gnd/Twr/CTAF
Feed Status: UP   Listeners: 0
Listen in your browser - HTML5 player (in browser, HTML5)
Click here to listen with your own player (launches your MP3 player)
Archive Access: KMWA Gnd/Twr/CTAF
FacilityFrequency
Marion Ground121.700
Marion Tower/CTAF128.400

NOTICE

Unauthorized use prohibited. See LiveATC.net Terms of Service


Airport/ARTCC Code
Frequency Search
(e.g., 124.400, 128.75)
Site-wide search
 


Browse Feeds
Top 50 Feeds
HF Oceanic Feeds
Coverage Map
Bad Weather Areas

LiveATC FAQ
Offer LiveATC feed
Contact LiveATC.net
Press Inquiries

LiveATC on iPhone
LiveATC on Android

LiveATC Mobile
(Mobile browser)

ATC Audio Archives
Interesting Recordings

LiveATC Forums


Home Page
About LiveATC.net


Terms of Use
Privacy Policy

AIRMETs/SIGMETs

FAA Airport Status
NAS Status
Arrival Demand


Server Software By:
Icecast.org
Liquidsoap